createdAt,value
2023-04-25T00:00:59.776Z,7.30
2023-04-25T00:03:26.713Z,7.40
2023-04-25T00:05:53.988Z,7.40
2023-04-25T00:08:20.890Z,7.40
2023-04-25T00:10:47.696Z,7.50
2023-04-25T00:13:15.853Z,7.50
2023-04-25T00:15:42.834Z,7.60
2023-04-25T00:18:09.771Z,7.60
2023-04-25T00:20:36.702Z,7.70
2023-04-25T00:23:03.486Z,7.70
2023-04-25T00:25:30.262Z,7.70
2023-04-25T00:27:57.048Z,7.70
2023-04-25T00:30:25.198Z,7.70
2023-04-25T00:32:52.024Z,7.70
2023-04-25T00:35:19.032Z,7.60
2023-04-25T00:37:45.846Z,7.60
2023-04-25T00:40:12.765Z,7.60
2023-04-25T00:42:40.122Z,7.50
2023-04-25T00:45:09.264Z,7.40
2023-04-25T00:47:38.008Z,7.30
2023-04-25T00:50:05.892Z,7.30
2023-04-25T00:52:32.711Z,7.20
2023-04-25T00:54:59.821Z,7.20
2023-04-25T00:57:26.768Z,7.20
2023-04-25T00:59:55.176Z,7.10
2023-04-25T01:02:22.261Z,7.00
2023-04-25T01:04:50.538Z,7.00
2023-04-25T01:07:17.398Z,7.00
2023-04-25T01:09:44.221Z,7.00
2023-04-25T01:12:11.471Z,7.00
2023-04-25T01:14:38.312Z,7.00
2023-04-25T01:17:05.669Z,7.10
2023-04-25T01:19:32.448Z,7.10
2023-04-25T01:22:00.954Z,7.00
2023-04-25T01:24:28.034Z,7.00
2023-04-25T01:26:55.639Z,7.00
2023-04-25T01:29:24.984Z,6.90
2023-04-25T01:31:52.879Z,6.90
2023-04-25T01:34:19.902Z,6.90
2023-04-25T01:36:49.131Z,6.80
2023-04-25T01:39:17.556Z,6.80
2023-04-25T01:41:44.630Z,6.80
2023-04-25T01:44:11.457Z,6.70
2023-04-25T01:46:38.579Z,6.60
2023-04-25T01:49:05.749Z,6.60
2023-04-25T01:51:32.743Z,6.50
2023-04-25T01:54:00.980Z,6.50
2023-04-25T01:56:32.877Z,6.40
2023-04-25T01:58:59.906Z,6.30
2023-04-25T02:01:26.791Z,6.20
2023-04-25T02:03:53.984Z,6.20
2023-04-25T02:06:21.275Z,6.20
2023-04-25T02:08:48.286Z,6.20
2023-04-25T02:11:15.080Z,6.20
2023-04-25T02:13:43.219Z,6.20
2023-04-25T02:16:10.149Z,6.20
2023-04-25T02:18:36.995Z,6.20
2023-04-25T02:21:04.016Z,6.20
2023-04-25T02:23:30.881Z,6.20
2023-04-25T02:25:57.986Z,6.30
2023-04-25T02:28:25.002Z,6.40
2023-04-25T02:30:53.167Z,6.40
2023-04-25T02:33:19.995Z,6.50
2023-04-25T02:35:46.737Z,6.60
2023-04-25T02:38:13.496Z,6.60
2023-04-25T02:40:40.302Z,6.70
2023-04-25T02:43:07.116Z,6.80
2023-04-25T02:45:33.930Z,6.80
2023-04-25T02:48:02.256Z,6.80
2023-04-25T02:50:29.326Z,6.80
2023-04-25T02:52:56.079Z,6.90
2023-04-25T02:55:22.872Z,6.80
2023-04-25T02:57:49.712Z,6.90
2023-04-25T03:00:16.721Z,6.90
2023-04-25T03:02:43.619Z,7.00
2023-04-25T03:05:11.821Z,7.00
2023-04-25T03:07:38.548Z,7.10
2023-04-25T03:10:06.395Z,7.10
2023-04-25T03:12:33.353Z,7.10
2023-04-25T03:15:00.211Z,7.20
2023-04-25T03:17:27.062Z,7.30
2023-04-25T03:19:53.838Z,7.30
2023-04-25T03:22:22.499Z,7.30
2023-04-25T03:24:49.284Z,7.30
2023-04-25T03:27:16.086Z,7.20
2023-04-25T03:29:42.865Z,7.20
2023-04-25T03:32:09.744Z,7.10
2023-04-25T03:34:36.744Z,7.00
2023-04-25T03:37:03.545Z,7.00
2023-04-25T03:39:31.815Z,7.00
2023-04-25T03:41:58.572Z,6.90
2023-04-25T03:44:25.491Z,6.80
2023-04-25T03:46:52.233Z,6.70
2023-04-25T03:49:19.511Z,6.60
2023-04-25T03:51:46.594Z,6.50
2023-04-25T03:54:13.397Z,6.50
2023-04-25T03:56:41.609Z,6.50
2023-04-25T03:59:08.364Z,6.50
2023-04-25T04:01:35.156Z,6.40
2023-04-25T04:04:02.102Z,6.50
2023-04-25T04:06:29.014Z,6.50
2023-04-25T04:08:55.759Z,6.50
2023-04-25T04:11:22.544Z,6.40
2023-04-25T04:13:50.949Z,6.40
2023-04-25T04:16:18.083Z,6.30
2023-04-25T04:18:45.772Z,6.30
2023-04-25T04:21:12.676Z,6.30
2023-04-25T04:23:39.889Z,6.20
2023-04-25T04:26:06.980Z,6.20
2023-04-25T04:28:33.741Z,6.20
2023-04-25T04:31:01.955Z,6.20
2023-04-25T04:33:28.838Z,6.20
2023-04-25T04:35:55.624Z,6.30
2023-04-25T04:38:22.420Z,6.30
2023-04-25T04:40:49.137Z,6.30
2023-04-25T04:43:15.952Z,6.30
2023-04-25T04:45:42.740Z,6.30
2023-04-25T04:48:11.244Z,6.40
2023-04-25T04:50:38.181Z,6.40
2023-04-25T04:53:05.305Z,6.40
2023-04-25T04:55:32.233Z,6.50
2023-04-25T04:57:58.952Z,6.50
2023-04-25T05:00:27.116Z,6.50
2023-04-25T05:02:55.499Z,6.50
2023-04-25T05:05:23.730Z,6.60
2023-04-25T05:07:50.499Z,6.60
2023-04-25T05:10:17.755Z,6.60
2023-04-25T05:12:44.679Z,6.70
2023-04-25T05:15:11.790Z,6.70
2023-04-25T05:17:38.662Z,6.80
2023-04-25T05:20:06.777Z,6.80
2023-04-25T05:22:34.958Z,6.80
2023-04-25T05:25:01.785Z,6.80
2023-04-25T05:27:28.666Z,6.80
2023-04-25T05:29:55.441Z,6.80
2023-04-25T05:32:22.388Z,6.80
2023-04-25T05:34:49.461Z,6.80
2023-04-25T05:37:16.257Z,6.80
2023-04-25T05:39:44.548Z,6.80
2023-04-25T05:42:11.331Z,6.90
2023-04-25T05:44:38.052Z,6.90
2023-04-25T05:47:04.997Z,7.10
2023-04-25T05:49:31.867Z,7.10
2023-04-25T05:51:58.704Z,7.20
2023-04-25T05:54:25.437Z,7.40
2023-04-25T05:56:53.665Z,7.60
2023-04-25T05:59:20.503Z,7.70
2023-04-25T06:01:48.364Z,7.70
2023-04-25T06:04:15.576Z,7.60
2023-04-25T06:06:42.514Z,7.30
2023-04-25T06:09:09.358Z,7.00
2023-04-25T06:11:36.122Z,6.60
2023-04-25T06:14:04.225Z,6.30
2023-04-25T06:16:31.063Z,5.90
2023-04-25T06:18:57.877Z,5.50
2023-04-25T06:21:24.647Z,5.20
2023-04-25T06:23:51.673Z,5.10
2023-04-25T06:26:18.781Z,5.00
2023-04-25T06:28:45.573Z,5.10
2023-04-25T06:31:13.802Z,5.20
2023-04-25T06:33:40.620Z,5.30
2023-04-25T06:36:07.874Z,5.30
2023-04-25T06:38:34.664Z,5.40
2023-04-25T06:41:01.439Z,5.60
2023-04-25T06:43:28.274Z,5.90
2023-04-25T06:45:55.217Z,6.10
2023-04-25T06:48:23.421Z,6.10
2023-04-25T06:50:50.390Z,6.20
2023-04-25T06:53:17.264Z,6.20
2023-04-25T06:55:44.069Z,6.30
2023-04-25T06:58:10.871Z,6.40
2023-04-25T07:00:37.764Z,6.50
2023-04-25T07:03:04.806Z,6.60
2023-04-25T07:05:33.063Z,6.70
2023-04-25T07:08:00.505Z,6.80
2023-04-25T07:10:28.006Z,6.90
2023-04-25T07:12:54.837Z,7.00
2023-04-25T07:15:21.808Z,7.20
2023-04-25T07:17:48.772Z,7.20
2023-04-25T07:20:15.835Z,7.30
2023-04-25T07:22:44.015Z,7.30
2023-04-25T07:25:10.924Z,7.40
2023-04-25T07:27:37.720Z,7.40
2023-04-25T07:30:05.585Z,7.60
2023-04-25T07:32:32.386Z,7.70
2023-04-25T07:34:59.195Z,7.80
2023-04-25T07:37:26.144Z,7.90
2023-04-25T07:39:54.489Z,8.00
2023-04-25T07:42:21.296Z,8.10
2023-04-25T07:44:48.263Z,8.10
2023-04-25T07:47:15.104Z,7.80
2023-04-25T07:49:41.896Z,7.70
2023-04-25T07:52:08.753Z,7.70
2023-04-25T07:54:35.831Z,7.60
2023-04-25T07:57:04.426Z,7.60
2023-04-25T07:59:31.188Z,7.70
2023-04-25T08:01:58.024Z,7.70
2023-04-25T08:04:25.112Z,7.80
2023-04-25T08:06:52.289Z,8.00
2023-04-25T08:09:19.104Z,8.30
2023-04-25T08:11:46.194Z,8.60
2023-04-25T08:14:14.426Z,9.00
2023-04-25T08:16:41.443Z,9.20
2023-04-25T08:19:08.213Z,9.40
2023-04-25T08:21:35.070Z,9.70
2023-04-25T08:24:04.251Z,10.10
2023-04-25T08:26:31.025Z,10.20
2023-04-25T08:28:57.867Z,10.20
2023-04-25T08:31:26.269Z,10.40
2023-04-25T08:33:53.138Z,10.70
2023-04-25T08:36:31.486Z,10.90
2023-04-25T08:39:05.130Z,10.70
2023-04-25T08:41:32.545Z,10.40
2023-04-25T08:44:00.387Z,10.10
2023-04-25T08:46:29.607Z,10.10
2023-04-25T08:49:01.432Z,10.30
2023-04-25T08:51:31.539Z,10.40
2023-04-25T08:54:12.822Z,10.30
2023-04-25T08:56:48.833Z,10.20
2023-04-25T08:59:15.776Z,10.20
2023-04-25T09:01:44.145Z,10.20
2023-04-25T09:04:12.846Z,10.10
2023-04-25T09:06:39.691Z,10.00
2023-04-25T09:09:08.450Z,10.00
2023-04-25T09:11:37.278Z,10.30
2023-04-25T09:14:15.238Z,10.50
2023-04-25T09:17:04.020Z,10.70
2023-04-25T09:19:41.422Z,10.70
2023-04-25T09:22:09.354Z,10.60
2023-04-25T09:24:38.682Z,10.60
2023-04-25T09:27:06.683Z,10.80
2023-04-25T09:29:34.386Z,11.20
2023-04-25T09:32:19.647Z,11.60
2023-04-25T09:34:48.714Z,12.10
2023-04-25T09:37:19.396Z,12.40
2023-04-25T09:39:46.443Z,12.50
2023-04-25T09:42:13.460Z,12.50
2023-04-25T09:44:44.394Z,12.40
2023-04-25T09:47:11.558Z,12.40
2023-04-25T09:49:41.782Z,12.60
2023-04-25T09:52:08.918Z,12.70
2023-04-25T09:54:35.826Z,12.80
2023-04-25T09:57:10.853Z,12.70
2023-04-25T09:59:40.313Z,12.50
2023-04-25T10:02:09.018Z,12.40
2023-04-25T10:04:36.414Z,12.40
2023-04-25T10:07:07.083Z,12.50
2023-04-25T10:09:36.775Z,12.50
2023-04-25T10:12:04.698Z,12.50
2023-04-25T10:14:32.405Z,12.40
2023-04-25T10:16:59.874Z,12.30
2023-04-25T10:19:28.881Z,12.30
2023-04-25T10:22:04.130Z,12.50
2023-04-25T10:24:32.349Z,12.90
2023-04-25T10:26:59.666Z,13.30
2023-04-25T10:29:27.320Z,13.70
2023-04-25T10:31:54.422Z,14.20
2023-04-25T10:34:26.128Z,14.20
2023-04-25T10:36:53.705Z,13.90
2023-04-25T10:39:25.390Z,13.40
2023-04-25T10:41:58.209Z,12.70
2023-04-25T10:44:27.684Z,10.90
2023-04-25T10:46:56.593Z,8.90
2023-04-25T10:49:31.325Z,8.00
2023-04-25T10:52:15.990Z,7.70
2023-04-25T10:54:43.710Z,7.70
2023-04-25T10:57:33.238Z,7.80
2023-04-25T11:00:01.297Z,8.10
2023-04-25T11:02:29.110Z,8.30
2023-04-25T11:04:56.141Z,8.50
2023-04-25T11:07:33.272Z,8.60
2023-04-25T11:10:03.406Z,8.80
2023-04-25T11:12:31.781Z,9.00
2023-04-25T11:15:05.010Z,9.40
2023-04-25T11:17:32.184Z,9.60
2023-04-25T11:19:59.222Z,9.70
2023-04-25T11:22:27.858Z,10.00
2023-04-25T11:24:54.909Z,10.20
2023-04-25T11:27:22.188Z,10.30
2023-04-25T11:29:48.919Z,10.20
2023-04-25T11:32:19.308Z,10.00
2023-04-25T11:34:47.855Z,9.80
2023-04-25T11:37:15.553Z,9.80
2023-04-25T11:39:46.158Z,10.00
2023-04-25T11:42:14.086Z,10.00
2023-04-25T11:44:41.344Z,9.90
2023-04-25T11:47:08.167Z,9.70
2023-04-25T11:49:36.550Z,9.50
2023-04-25T11:52:03.717Z,9.50
2023-04-25T11:54:30.581Z,9.50
2023-04-25T11:56:57.699Z,9.60
2023-04-25T11:59:26.230Z,9.30
2023-04-25T12:01:53.355Z,9.30
2023-04-25T12:04:21.686Z,9.20
2023-04-25T12:06:51.131Z,9.10
2023-04-25T12:09:20.315Z,9.10
2023-04-25T12:11:48.418Z,9.00
2023-04-25T12:14:22.977Z,9.20
2023-04-25T12:16:49.900Z,9.20
2023-04-25T12:19:17.264Z,9.50
2023-04-25T12:24:22.427Z,9.30
2023-04-25T12:26:50.853Z,9.10
2023-04-25T12:29:19.245Z,9.00
2023-04-25T12:31:46.139Z,8.80
2023-04-25T12:34:13.430Z,8.80
2023-04-25T12:36:40.378Z,8.90
2023-04-25T12:39:07.302Z,9.00
2023-04-25T12:41:35.659Z,9.10
2023-04-25T12:44:02.390Z,9.20
2023-04-25T12:46:29.200Z,9.50
2023-04-25T12:48:58.782Z,9.70
2023-04-25T12:51:29.636Z,9.90
2023-04-25T12:53:56.524Z,10.00
2023-04-25T12:56:24.646Z,10.00
2023-04-25T12:58:54.387Z,10.10
2023-04-25T13:01:21.726Z,10.00
2023-04-25T13:03:48.915Z,10.00
2023-04-25T13:06:16.210Z,9.90
2023-04-25T13:08:43.219Z,9.60
2023-04-25T13:11:10.216Z,9.30
2023-04-25T13:13:37.033Z,9.20
2023-04-25T13:16:06.317Z,9.00
2023-04-25T13:18:33.336Z,8.80
2023-04-25T13:21:00.558Z,8.70
2023-04-25T13:23:28.814Z,8.80
2023-04-25T13:25:56.270Z,8.70
2023-04-25T13:28:23.079Z,8.60
2023-04-25T13:30:49.844Z,8.70
2023-04-25T13:33:18.134Z,8.80
2023-04-25T13:35:45.299Z,8.90
2023-04-25T13:38:12.096Z,9.10
2023-04-25T13:40:38.900Z,9.30
2023-04-25T13:43:05.722Z,9.30
2023-04-25T13:45:33.721Z,9.00
2023-04-25T13:48:00.617Z,8.50
2023-04-25T13:50:28.755Z,7.90
2023-04-25T13:52:55.529Z,7.40
2023-04-25T13:55:22.301Z,7.20
2023-04-25T13:57:49.119Z,7.20
2023-04-25T14:00:16.885Z,7.20
2023-04-25T14:02:43.755Z,7.20
2023-04-25T14:05:10.775Z,7.30
2023-04-25T14:07:38.973Z,7.30
2023-04-25T14:10:07.002Z,7.40
2023-04-25T14:12:34.219Z,7.40
2023-04-25T14:15:00.961Z,7.20
2023-04-25T14:17:28.149Z,7.10
2023-04-25T14:19:55.023Z,6.90
2023-04-25T14:22:21.940Z,6.80
2023-04-25T14:24:50.127Z,6.80
2023-04-25T14:27:16.964Z,6.80
2023-04-25T14:29:43.817Z,7.10
2023-04-25T14:32:10.627Z,7.40
2023-04-25T14:34:37.443Z,7.80
2023-04-25T14:37:04.429Z,8.70
2023-04-25T14:39:31.201Z,9.90
2023-04-25T14:41:59.398Z,10.30
2023-04-25T14:44:26.322Z,10.10
2023-04-25T14:46:53.216Z,9.90
2023-04-25T14:49:20.136Z,9.90
2023-04-25T14:51:47.062Z,10.60
2023-04-25T14:54:13.881Z,10.90
2023-04-25T14:56:40.696Z,10.90
2023-04-25T14:59:08.861Z,10.90
2023-04-25T15:01:35.657Z,10.70
2023-04-25T15:04:02.809Z,10.40
2023-04-25T15:06:29.695Z,10.40
2023-04-25T15:08:56.554Z,10.00
2023-04-25T15:11:23.639Z,9.90
2023-04-25T15:13:50.746Z,9.70
2023-04-25T15:16:19.134Z,9.40
2023-04-25T15:18:46.050Z,9.10
2023-04-25T15:21:12.902Z,9.10
2023-04-25T15:23:39.733Z,9.10
2023-04-25T15:26:06.486Z,9.10
2023-04-25T15:28:33.279Z,9.20
2023-04-25T15:31:00.143Z,9.30
2023-04-25T15:33:28.251Z,9.90
2023-04-25T15:35:55.019Z,10.30
2023-04-25T15:38:21.745Z,10.50
2023-04-25T15:40:48.715Z,10.40
2023-04-25T15:43:15.536Z,11.00
2023-04-25T15:45:42.497Z,12.00
2023-04-25T15:48:09.317Z,12.50
2023-04-25T15:50:37.610Z,12.50
2023-04-25T15:53:07.007Z,11.90
2023-04-25T15:55:34.463Z,11.10
2023-04-25T15:58:01.295Z,10.30
2023-04-25T16:00:28.337Z,9.60
2023-04-25T16:02:55.263Z,9.20
2023-04-25T16:05:22.116Z,9.00
2023-04-25T16:07:51.569Z,8.90
2023-04-25T16:10:19.135Z,8.60
2023-04-25T16:12:46.019Z,8.60
2023-04-25T16:15:12.769Z,8.60
2023-04-25T16:17:39.673Z,8.50
2023-04-25T16:20:07.644Z,8.50
2023-04-25T16:22:34.475Z,8.40
2023-04-25T16:25:03.129Z,8.40
2023-04-25T16:27:29.984Z,8.40
2023-04-25T16:29:57.051Z,8.40
2023-04-25T16:32:23.828Z,8.40
2023-04-25T16:34:50.552Z,8.50
2023-04-25T16:37:17.292Z,8.40
2023-04-25T16:39:44.071Z,8.40
2023-04-25T16:42:12.225Z,8.30
2023-04-25T16:44:39.053Z,8.30
2023-04-25T16:47:05.977Z,8.40
2023-04-25T16:49:32.905Z,8.40
2023-04-25T16:51:59.801Z,8.50
2023-04-25T16:54:26.588Z,8.40
2023-04-25T16:56:53.605Z,8.50
2023-04-25T16:59:21.770Z,8.60
2023-04-25T17:01:49.187Z,8.60
2023-04-25T17:04:16.267Z,8.50
2023-04-25T17:06:43.141Z,8.30
2023-04-25T17:09:09.914Z,8.10
2023-04-25T17:11:37.461Z,8.00
2023-04-25T17:14:04.665Z,7.90
2023-04-25T17:16:37.532Z,7.70
2023-04-25T17:19:05.502Z,7.70
2023-04-25T17:21:32.428Z,7.60
2023-04-25T17:23:59.421Z,7.60
2023-04-25T17:26:26.448Z,7.60
2023-04-25T17:28:53.493Z,7.60
2023-04-25T17:31:21.840Z,7.60
2023-04-25T17:33:50.159Z,7.60
2023-04-25T17:36:17.048Z,7.60
2023-04-25T17:38:43.899Z,7.60
2023-04-25T17:41:10.787Z,7.50
2023-04-25T17:43:37.621Z,7.50
2023-04-25T17:46:04.531Z,7.50
2023-04-25T17:48:31.333Z,7.50
2023-04-25T17:50:59.547Z,7.40
2023-04-25T17:53:26.406Z,7.40
2023-04-25T17:55:53.244Z,7.40
2023-04-25T17:58:20.027Z,7.30
2023-04-25T18:00:46.821Z,7.30
2023-04-25T18:03:14.019Z,7.30
2023-04-25T18:05:40.846Z,7.30
2023-04-25T18:08:09.013Z,7.20
2023-04-25T18:10:35.928Z,7.20
2023-04-25T18:13:02.750Z,7.20
2023-04-25T18:15:29.651Z,7.20
2023-04-25T18:17:56.509Z,7.20
2023-04-25T18:20:23.709Z,7.20
2023-04-25T18:22:50.494Z,7.10
2023-04-25T18:25:18.671Z,7.20
2023-04-25T18:27:45.459Z,7.20
2023-04-25T18:30:13.497Z,7.00
2023-04-25T18:32:40.550Z,6.60
2023-04-25T18:35:08.079Z,6.20
2023-04-25T18:37:34.895Z,5.90
2023-04-25T18:40:01.665Z,5.70
2023-04-25T18:42:29.859Z,5.60
2023-04-25T18:44:56.596Z,5.50
2023-04-25T18:47:23.420Z,5.50
2023-04-25T18:49:50.232Z,5.50
2023-04-25T18:52:17.081Z,5.50
2023-04-25T18:54:43.878Z,5.60
2023-04-25T18:57:10.653Z,5.50
2023-04-25T18:59:38.835Z,5.40
2023-04-25T19:02:05.920Z,5.30
2023-04-25T19:04:32.957Z,5.20
2023-04-25T19:06:59.925Z,5.20
2023-04-25T19:09:26.742Z,5.20
2023-04-25T19:11:53.522Z,5.20
2023-04-25T19:14:20.509Z,5.20
2023-04-25T19:16:48.861Z,5.20
2023-04-25T19:19:16.024Z,5.30
2023-04-25T19:21:43.079Z,5.30
2023-04-25T19:24:10.382Z,5.30
2023-04-25T19:26:37.735Z,5.30
2023-04-25T19:29:07.008Z,5.30
2023-04-25T19:31:34.915Z,5.30
2023-04-25T19:34:03.417Z,5.40
2023-04-25T19:36:30.269Z,5.40
2023-04-25T19:38:57.375Z,5.40
2023-04-25T19:41:24.328Z,5.40
2023-04-25T19:43:51.330Z,5.40
2023-04-25T19:46:18.577Z,5.50
2023-04-25T19:48:45.438Z,5.50
2023-04-25T19:51:13.761Z,5.50
2023-04-25T19:53:40.588Z,5.50
2023-04-25T19:56:08.600Z,5.60
2023-04-25T19:58:35.685Z,5.60
2023-04-25T20:01:02.525Z,5.70
2023-04-25T20:03:29.560Z,5.70
2023-04-25T20:05:56.417Z,5.70
2023-04-25T20:08:26.074Z,5.70
2023-04-25T20:10:53.120Z,5.60
2023-04-25T20:13:19.942Z,5.50
2023-04-25T20:15:46.874Z,5.60
2023-04-25T20:18:13.902Z,5.60
2023-04-25T20:20:40.816Z,5.60
2023-04-25T20:23:07.792Z,5.50
2023-04-25T20:25:35.965Z,5.40
2023-04-25T20:28:02.841Z,5.40
2023-04-25T20:30:29.731Z,5.40
2023-04-25T20:32:56.595Z,5.40
2023-04-25T20:35:23.557Z,5.40
2023-04-25T20:37:50.412Z,5.40
2023-04-25T20:40:17.188Z,5.40
2023-04-25T20:42:45.379Z,5.40
2023-04-25T20:45:12.208Z,5.40
2023-04-25T20:47:39.260Z,5.50
2023-04-25T20:50:07.470Z,5.50
2023-04-25T20:52:34.531Z,5.50
2023-04-25T20:55:01.411Z,5.50
2023-04-25T20:57:28.410Z,5.50
2023-04-25T20:59:56.556Z,5.50
2023-04-25T21:02:23.456Z,5.50
2023-04-25T21:04:50.356Z,5.50
2023-04-25T21:07:17.203Z,5.50
2023-04-25T21:09:44.071Z,5.50
2023-04-25T21:12:11.221Z,5.50
2023-04-25T21:14:38.157Z,5.50
2023-04-25T21:17:06.279Z,5.50
2023-04-25T21:19:33.226Z,5.50
2023-04-25T21:22:00.184Z,5.50
2023-04-25T21:24:27.096Z,5.50
2023-04-25T21:26:54.155Z,5.40
2023-04-25T21:29:21.044Z,5.40
2023-04-25T21:31:47.902Z,5.30
2023-04-25T21:34:16.450Z,5.30
2023-04-25T21:36:43.274Z,5.30
2023-04-25T21:39:10.083Z,5.40
2023-04-25T21:41:36.871Z,5.40
2023-04-25T21:44:04.178Z,5.40
2023-04-25T21:46:31.043Z,5.40
2023-04-25T21:48:58.129Z,5.50
2023-04-25T21:51:26.319Z,5.50
2023-04-25T21:53:53.142Z,5.50
2023-04-25T21:56:19.894Z,5.50
2023-04-25T21:58:46.750Z,5.40
2023-04-25T22:01:13.521Z,5.40
2023-04-25T22:03:40.489Z,5.40
2023-04-25T22:06:07.688Z,5.40
2023-04-25T22:08:35.806Z,5.30
2023-04-25T22:11:02.994Z,5.30
2023-04-25T22:13:29.859Z,5.30
2023-04-25T22:15:56.837Z,5.30
2023-04-25T22:18:23.642Z,5.40
2023-04-25T22:20:50.403Z,5.40
2023-04-25T22:23:17.167Z,5.40
2023-04-25T22:25:45.417Z,5.40
2023-04-25T22:28:12.206Z,5.40
2023-04-25T22:30:39.045Z,5.50
2023-04-25T22:33:06.037Z,5.50
2023-04-25T22:35:32.927Z,5.50
2023-04-25T22:37:59.721Z,5.50
2023-04-25T22:40:26.576Z,5.50
2023-04-25T22:42:54.818Z,5.40
2023-04-25T22:45:21.745Z,5.50
2023-04-25T22:47:48.743Z,5.50
2023-04-25T22:50:15.679Z,5.40
2023-04-25T22:52:42.922Z,5.50
2023-04-25T22:55:10.113Z,5.50
2023-04-25T22:57:41.629Z,5.40
2023-04-25T23:11:34.979Z,5.50
2023-04-25T23:14:04.495Z,5.50
2023-04-25T23:25:19.386Z,5.60
2023-04-25T23:38:34.776Z,5.80
2023-04-25T23:41:02.732Z,5.80
2023-04-25T23:43:31.375Z,5.80
2023-04-25T23:54:14.308Z,5.70
2023-04-25T23:56:41.195Z,5.70
2023-04-25T23:59:08.055Z,5.60
